Time;durP1;ratioP1;P1;durP2;ratioP2;P2;SDS_P1;SDS_P2;PMS_P1;PMS_P2;Temp;Humidity;BMP_temperature;BMP_pressure;BME280_temperature;BME280_humidity;BME280_pressure;Samples;Min_cycle;Max_cycle;Signal;HPM_P1;HPM_P2
2024/04/16 00:00:43;;;;;;;;;;;17.80;34.40;19.40;97532.00;;;;5558796;25;2245;-88
2024/04/16 00:03:10;;;;;;;;;;;17.80;34.80;19.30;97537.00;;;;5550483;25;2519;-90
2024/04/16 00:05:40;;;;;;;;;;;17.70;34.90;19.40;97524.00;;;;5549753;25;2212;-89
2024/04/16 00:08:10;;;;;;;;;;;17.70;34.80;19.40;97473.00;;;;5545489;25;2099;-90
2024/04/16 00:10:40;;;;;;;;;;;17.80;34.70;19.40;97495.00;;;;5553132;25;2115;-90
2024/04/16 00:13:08;;;;;;;;;;;17.80;34.40;19.40;97495.00;;;;5553292;25;2213;-89
2024/04/16 00:15:38;;;;;;;;;;;17.80;34.40;19.40;97504.00;;;;5550759;25;1876;-90
2024/04/16 00:18:05;;;;;;;;;;;17.80;34.30;19.30;97488.00;;;;5567600;25;1515;-89
2024/04/16 00:20:35;;;;;;;;;;;17.80;34.20;19.40;97477.00;;;;5567746;25;1582;-90
2024/04/16 00:23:03;;;;;;;;;;;17.80;34.00;19.40;97477.00;;;;5552525;25;1580;-90
2024/04/16 00:25:35;;;;;;;;;;;17.80;34.00;19.40;97483.00;;;;5554418;25;1606;-90
2024/04/16 00:28:03;;;;;;;;;;;17.80;34.30;19.30;97466.00;;;;5552011;25;1719;-91
2024/04/16 00:30:32;;;;;;;;;;;17.80;34.80;19.30;97427.00;;;;5556943;25;1958;-91
2024/04/16 00:33:00;;;;;;;;;;;17.70;35.10;19.30;97456.00;;;;5555587;25;1569;-90
2024/04/16 00:35:29;;;;;;;;;;;17.70;35.50;19.20;97481.00;;;;5555388;25;1942;-90
2024/04/16 00:37:57;;;;;;;;;;;17.60;35.70;19.20;97477.00;;;;5553627;25;1739;-91
2024/04/16 00:40:26;;;;;;;;;;;17.60;36.00;19.20;97484.00;;;;5551962;25;1725;-90
2024/04/16 00:42:56;;;;;;;;;;;17.60;35.80;19.20;97470.00;;;;5558730;25;1541;-91
2024/04/16 00:45:26;;;;;;;;;;;17.60;35.50;19.20;97463.00;;;;5561352;25;1684;-90
2024/04/16 00:47:53;;;;;;;;;;;17.60;35.20;19.30;97457.00;;;;5558787;25;1793;-90
2024/04/16 00:50:23;;;;;;;;;;;17.70;35.10;19.30;97458.00;;;;5559910;25;1642;-90
2024/04/16 00:52:50;;;;;;;;;;;17.70;34.90;19.30;97454.00;;;;5563080;25;1678;-90
2024/04/16 00:55:20;;;;;;;;;;;17.70;34.70;19.30;97479.00;;;;5553637;25;1837;-90
2024/04/16 00:57:47;;;;;;;;;;;17.70;34.60;19.30;97450.00;;;;5560806;25;1615;-90
2024/04/16 01:00:21;;;;;;;;;;;17.80;34.50;19.40;97433.00;;;;5546348;25;1625;-91
2024/04/16 01:02:48;;;;;;;;;;;17.80;34.40;19.30;97465.00;;;;5558254;25;1587;-91
2024/04/16 01:05:18;;;;;;;;;;;17.70;34.70;19.30;97424.00;;;;5559697;25;1477;-90
2024/04/16 01:07:45;;;;;;;;;;;17.70;35.10;19.20;97418.00;;;;5560886;25;1628;-91
2024/04/16 01:10:15;;;;;;;;;;;17.60;35.10;19.30;97449.00;;;;5559050;25;1350;-90
2024/04/16 01:12:43;;;;;;;;;;;17.60;34.80;19.30;97430.00;;;;5553940;25;1582;-90
2024/04/16 01:15:13;;;;;;;;;;;17.70;34.80;19.30;97440.00;;;;5561216;25;1844;-91
2024/04/16 01:17:43;;;;;;;;;;;17.70;34.60;19.30;97418.00;;;;5560979;25;1683;-91
2024/04/16 01:20:13;;;;;;;;;;;17.70;34.50;19.30;97429.00;;;;5560052;25;1515;-90
2024/04/16 01:22:47;;;;;;;;;;;17.70;34.30;19.30;97429.00;;;;5553237;25;1672;-91
2024/04/16 01:25:17;;;;;;;;;;;17.70;34.20;19.20;97425.00;;;;5555298;25;1511;-90
2024/04/16 01:27:44;;;;;;;;;;;17.70;34.10;19.30;97428.00;;;;5551045;25;1798;-90
2024/04/16 01:30:14;;;;;;;;;;;17.70;34.00;19.30;97411.00;;;;5553613;25;1630;-89
2024/04/16 01:32:41;;;;;;;;;;;17.70;34.70;19.20;97411.00;;;;5556380;25;1645;-91
2024/04/16 01:35:11;;;;;;;;;;;17.70;34.90;19.20;97423.00;;;;5554151;25;1848;-89
2024/04/16 01:37:39;;;;;;;;;;;17.60;35.30;19.20;97428.00;;;;5544857;25;1601;-90
2024/04/16 01:40:12;;;;;;;;;;;17.60;35.00;19.20;97403.00;;;;5557364;25;1579;-91
2024/04/16 01:42:40;;;;;;;;;;;17.60;34.80;19.30;97420.00;;;;5547641;25;1579;-90
2024/04/16 01:45:10;;;;;;;;;;;17.60;34.60;19.30;97394.00;;;;5546858;25;1501;-90
2024/04/16 01:47:37;;;;;;;;;;;17.70;34.50;19.30;97362.00;;;;5557587;25;1440;-90
2024/04/16 01:50:08;;;;;;;;;;;17.70;34.30;19.30;97381.00;;;;5555660;25;1620;-89
2024/04/16 01:52:35;;;;;;;;;;;17.70;34.20;19.30;97412.00;;;;5553500;25;1571;-89
2024/04/16 01:55:05;;;;;;;;;;;17.70;34.10;19.30;97399.00;;;;5561071;25;1848;-90
2024/04/16 01:57:35;;;;;;;;;;;17.70;33.90;19.30;97377.00;;;;5559216;25;1331;-91
2024/04/16 02:00:05;;;;;;;;;;;17.70;34.20;19.20;97397.00;;;;5551229;25;1642;-90
2024/04/16 02:02:35;;;;;;;;;;;17.70;34.70;19.20;97393.00;;;;5565416;25;1462;-91
2024/04/16 02:05:05;;;;;;;;;;;17.60;34.80;19.20;97369.00;;;;5546209;25;1519;-90
2024/04/16 02:07:32;;;;;;;;;;;17.60;34.80;19.10;97383.00;;;;5551723;25;1816;-87
2024/04/16 02:10:02;;;;;;;;;;;17.60;34.60;19.20;97405.00;;;;5560030;25;1517;-88
2024/04/16 02:12:29;;;;;;;;;;;17.60;34.40;19.20;97392.00;;;;5562901;25;1466;-88
2024/04/16 02:15:01;;;;;;;;;;;17.60;34.20;19.30;97351.00;;;;5556879;25;1872;-88
2024/04/16 02:17:28;;;;;;;;;;;17.60;34.10;19.30;97390.00;;;;5560213;25;1529;-88
2024/04/16 02:19:58;;;;;;;;;;;17.70;34.00;19.30;97374.00;;;;5559108;25;1872;-88
2024/04/16 02:22:25;;;;;;;;;;;17.70;34.00;19.20;97387.00;;;;5559525;25;1575;-89
2024/04/16 02:24:55;;;;;;;;;;;17.70;33.90;19.20;97321.00;;;;5557611;25;1748;-89
2024/04/16 02:27:22;;;;;;;;;;;17.70;34.00;19.20;97381.00;;;;5559370;25;1573;-90
2024/04/16 02:29:52;;;;;;;;;;;17.60;34.50;19.20;97366.00;;;;5552389;25;1611;-89
2024/04/16 02:32:22;;;;;;;;;;;17.60;35.00;19.10;97324.00;;;;5555979;25;1576;-89
2024/04/16 02:34:53;;;;;;;;;;;17.50;35.30;19.10;97376.00;;;;5557501;25;1458;-89
2024/04/16 02:37:20;;;;;;;;;;;17.50;35.50;19.10;97403.00;;;;5551006;25;1331;-88
2024/04/16 02:39:51;;;;;;;;;;;17.40;35.90;19.00;97380.00;;;;5558706;25;1678;-90
2024/04/16 02:42:18;;;;;;;;;;;17.40;35.90;19.00;97356.00;;;;5557388;25;1508;-89
2024/04/16 02:45:10;;;;;;;;;;;17.40;35.40;19.00;97327.00;;;;5547604;25;1828;-89
2024/04/16 02:47:49;;;;;;;;;;;17.40;35.10;19.00;97361.00;;;;5561298;25;1567;-90
2024/04/16 02:50:27;;;;;;;;;;;17.50;35.00;19.00;97338.00;;;;5550532;25;1760;-89
2024/04/16 02:53:31;;;;;;;;;;;17.50;34.70;19.00;97373.00;;;;5561055;25;1706;-89
2024/04/16 02:55:59;;;;;;;;;;;17.50;34.50;19.20;97331.00;;;;5554943;25;1874;-89
2024/04/16 02:58:43;;;;;;;;;;;;;;;;;;;;;
2024/04/16 03:01:24;;;;;;;;;;;17.60;34.20;19.10;97299.00;;;;5554647;25;1794;-89
2024/04/16 03:04:12;;;;;;;;;;;17.60;34.50;19.00;97260.00;;;;5551219;25;1462;-89
2024/04/16 03:06:59;;;;;;;;;;;17.50;34.80;19.10;97342.00;;;;5549260;25;1646;-90
2024/04/16 03:09:44;;;;;;;;;;;17.50;35.10;19.20;97382.00;;;;5540138;25;1583;-89
2024/04/16 03:12:28;;;;;;;;;;;17.50;34.70;18.90;97303.00;;;;5563136;25;1593;-89
2024/04/16 03:15:06;;;;;;;;;;;17.50;34.80;19.10;97310.00;;;;5557154;25;1686;-90
2024/04/16 03:17:47;;;;;;;;;;;17.50;34.30;19.00;97290.00;;;;5563768;25;1633;-90
2024/04/16 03:21:00;;;;;;;;;;;17.50;34.20;19.10;97338.00;;;;5545267;25;1611;-90
2024/04/16 03:23:27;;;;;;;;;;;17.60;34.30;19.00;97322.00;;;;5543973;25;1543;-90
2024/04/16 03:25:57;;;;;;;;;;;17.50;34.10;19.20;97312.00;;;;5555392;25;1705;-90
2024/04/16 03:28:24;;;;;;;;;;;17.60;34.00;19.20;97346.00;;;;5564864;25;1540;-89
2024/04/16 03:30:54;;;;;;;;;;;17.60;34.00;19.10;97354.00;;;;5560168;25;1552;-89
2024/04/16 03:33:21;;;;;;;;;;;17.50;34.60;19.10;97271.00;;;;5559698;25;1493;-89
2024/04/16 03:35:57;;;;;;;;;;;17.50;35.00;19.10;97331.00;;;;5559682;25;1868;-90
2024/04/16 03:38:28;;;;;;;;;;;17.40;35.20;19.10;97274.00;;;;5531912;25;1540;-90
2024/04/16 03:40:58;;;;;;;;;;;17.50;34.80;19.00;97305.00;;;;5565728;25;1586;-90
2024/04/16 03:43:29;;;;;;;;;;;17.50;34.60;19.10;97281.00;;;;5564576;25;1554;-89
2024/04/16 03:46:04;;;;;;;;;;;17.50;34.60;19.10;97347.00;;;;5568917;25;1638;-90
2024/04/16 03:48:40;;;;;;;;;;;17.50;34.30;19.10;97346.00;;;;5561341;25;1720;-90
2024/04/16 03:51:10;;;;;;;;;;;17.60;34.30;19.20;97362.00;;;;5548525;25;1584;-91
2024/04/16 03:53:40;;;;;;;;;;;17.60;34.20;19.20;97362.00;;;;5560566;25;2056;-91
2024/04/16 03:56:07;;;;;;;;;;;17.60;34.00;19.20;97379.00;;;;5552905;25;1880;-91
2024/04/16 03:58:44;;;;;;;;;;;17.60;33.90;19.10;97410.00;;;;5559470;25;1609;-90
2024/04/16 04:01:12;;;;;;;;;;;17.50;34.20;19.10;97378.00;;;;5564091;25;1618;-90
2024/04/16 04:03:48;;;;;;;;;;;17.50;34.70;19.00;97388.00;;;;5559476;25;1954;-89
2024/04/16 04:06:18;;;;;;;;;;;17.40;34.80;19.10;97387.00;;;;5555579;25;1503;-89
2024/04/16 04:08:48;;;;;;;;;;;17.40;34.50;19.10;97356.00;;;;5562634;25;1646;-89
2024/04/16 04:11:16;;;;;;;;;;;17.50;34.50;19.10;97361.00;;;;5560145;25;1465;-89
2024/04/16 04:13:46;;;;;;;;;;;17.50;34.40;19.10;97360.00;;;;5563638;25;1496;-89
2024/04/16 04:16:14;;;;;;;;;;;17.50;34.10;19.10;97341.00;;;;5553193;25;1841;-89
2024/04/16 04:18:44;;;;;;;;;;;17.50;34.10;19.10;97310.00;;;;5564673;25;1562;-89
2024/04/16 04:21:11;;;;;;;;;;;17.50;33.90;19.10;97338.00;;;;5559743;25;2946;-90
2024/04/16 04:23:43;;;;;;;;;;;17.50;33.90;19.10;97309.00;;;;5559064;25;1678;-90
2024/04/16 04:26:10;;;;;;;;;;;17.50;33.90;19.10;97354.00;;;;5559269;25;1451;-90
2024/04/16 04:28:40;;;;;;;;;;;17.50;34.20;19.00;97360.00;;;;5564579;25;1572;-90
2024/04/16 04:31:14;;;;;;;;;;;17.40;34.40;19.00;97378.00;;;;5562895;25;1558;-87
2024/04/16 04:33:43;;;;;;;;;;;17.40;34.90;19.00;97371.00;;;;5549952;25;1443;-89
2024/04/16 04:36:11;;;;;;;;;;;17.30;35.10;18.90;97375.00;;;;5568801;25;1840;-89
2024/04/16 04:38:44;;;;;;;;;;;17.30;35.50;18.90;97362.00;;;;5564842;25;1592;-88
2024/04/16 04:41:11;;;;;;;;;;;17.20;35.70;18.90;97353.00;;;;5554267;25;1603;-89
2024/04/16 04:43:41;;;;;;;;;;;17.30;35.30;18.90;97389.00;;;;5557796;25;1758;-90
2024/04/16 04:46:26;;;;;;;;;;;17.30;35.10;18.90;97406.00;;;;5560926;20;2087;-38
2024/04/16 04:49:07;;;;;;;;;;;17.30;34.90;19.00;97419.00;;;;5512514;26;2405;-37
2024/04/16 04:51:43;;;;;;;;;;;17.30;34.70;19.00;97412.00;;;;5513996;26;2188;-38
2024/04/16 04:54:34;;;;;;;;;;;17.40;34.70;19.00;97420.00;;;;5514211;26;2164;-37
2024/04/16 04:57:10;;;;;;;;;;;17.40;34.40;19.00;97425.00;;;;5513474;26;2321;-37
2024/04/16 04:59:55;;;;;;;;;;;17.40;34.30;19.00;97429.00;;;;5519859;26;2230;-38
2024/04/16 05:02:46;;;;;;;;;;;17.40;34.10;19.00;97432.00;;;;5514165;26;2832;-37
2024/04/16 05:05:26;;;;;;;;;;;17.40;34.80;18.90;97428.00;;;;5515822;26;2080;-38
2024/04/16 05:08:15;;;;;;;;;;;17.30;35.20;18.90;97441.00;;;;5516589;26;2231;-39
2024/04/16 05:10:58;;;;;;;;;;;17.30;35.30;18.90;97438.00;;;;5519772;26;2229;-38
2024/04/16 05:13:51;;;;;;;;;;;17.30;35.00;18.90;97452.00;;;;5513810;26;2016;-38
2024/04/16 05:16:40;;;;;;;;;;;17.30;34.80;19.00;97447.00;;;;5513761;26;2187;-38
2024/04/16 05:19:22;;;;;;;;;;;17.40;34.60;19.00;97443.00;;;;5518084;26;1972;-38
2024/04/16 05:22:07;;;;;;;;;;;17.40;34.40;19.00;97446.00;;;;5518168;26;1985;-39
2024/04/16 05:25:19;;;;;;;;;;;17.40;34.30;19.00;97444.00;;;;5515273;26;1729;-38
2024/04/16 05:28:05;;;;;;;;;;;17.40;34.10;19.00;97450.00;;;;5515263;26;2299;-38
2024/04/16 05:30:51;;;;;;;;;;;17.50;34.00;19.00;97447.00;;;;5515621;26;2237;-38
2024/04/16 05:33:27;;;;;;;;;;;17.40;34.40;19.00;97454.00;;;;5512044;26;2116;-38
2024/04/16 05:36:21;;;;;;;;;;;17.40;34.80;18.90;97447.00;;;;5520609;26;2515;-39
2024/04/16 05:39:06;;;;;;;;;;;17.30;34.90;19.00;97443.00;;;;5518075;25;2352;-38
2024/04/16 05:41:43;;;;;;;;;;;17.40;34.60;19.00;97449.00;;;;5517065;25;2202;-38
2024/04/16 05:44:31;;;;;;;;;;;17.40;34.40;19.10;97454.00;;;;5510561;26;2039;-38
2024/04/16 05:47:03;;;;;;;;;;;17.50;34.30;19.10;97452.00;;;;5517508;26;1861;-38
2024/04/16 05:49:42;;;;;;;;;;;17.60;34.20;19.10;97453.00;;;;5519404;26;2299;-37
2024/04/16 05:52:30;;;;;;;;;;;17.60;34.00;19.20;97455.00;;;;5514278;26;2347;-38
2024/04/16 05:55:15;;;;;;;;;;;17.60;33.90;19.20;97475.00;;;;5511522;26;1511;-38
2024/04/16 05:58:05;;;;;;;;;;;17.70;33.80;19.30;97466.00;;;;5513421;26;2340;-38
2024/04/16 06:00:51;;;;;;;;;;;17.70;34.60;19.30;97466.00;;;;5512552;25;2884;-38
2024/04/16 06:06:22;;;;;;;;;;;17.60;35.30;19.30;97471.00;;;;5516706;26;2265;-38
2024/04/16 06:08:56;;;;;;;;;;;17.60;34.70;19.30;97455.00;;;;5518536;26;2207;-39
2024/04/16 06:11:43;;;;;;;;;;;17.70;34.60;19.30;97446.00;;;;5512386;26;2204;-39
2024/04/16 06:14:29;;;;;;;;;;;17.70;34.40;19.30;97436.00;;;;5517189;26;2115;-39
2024/04/16 06:17:07;;;;;;;;;;;17.70;34.20;19.30;97435.00;;;;5516753;26;2071;-38
2024/04/16 06:19:57;;;;;;;;;;;17.70;34.10;19.30;97430.00;;;;5514190;25;2189;-37
2024/04/16 06:22:39;;;;;;;;;;;17.80;34.10;19.30;97429.00;;;;5509063;26;2380;-37
2024/04/16 06:25:14;;;;;;;;;;;17.80;34.00;19.40;97436.00;;;;5517116;26;1961;-39
2024/04/16 06:27:57;;;;;;;;;;;17.80;34.00;19.40;97436.00;;;;5513892;25;2287;-39
2024/04/16 06:30:40;;;;;;;;;;;17.80;34.40;19.40;97435.00;;;;5514041;26;2005;-39
2024/04/16 06:33:18;;;;;;;;;;;17.80;35.10;19.40;97435.00;;;;5515184;26;2286;-38
2024/04/16 06:35:58;;;;;;;;;;;17.80;35.40;19.40;97435.00;;;;5518624;26;2263;-38
2024/04/16 06:41:38;;;;;;;;;;;17.80;35.90;19.40;97439.00;;;;5514949;26;2383;-38
2024/04/16 06:44:25;;;;;;;;;;;17.80;35.10;19.40;97436.00;;;;5522243;26;2342;-38
2024/04/16 06:47:04;;;;;;;;;;;17.90;34.90;19.40;97437.00;;;;5521749;26;2317;-37
2024/04/16 06:49:57;;;;;;;;;;;17.90;34.70;19.40;97423.00;;;;5521905;26;2294;-37
2024/04/16 06:52:29;;;;;;;;;;;17.90;34.50;19.50;97435.00;;;;5510407;26;2348;-39
2024/04/16 06:55:12;;;;;;;;;;;17.90;34.30;19.50;97421.00;;;;5521178;25;2180;-38
2024/04/16 06:57:55;;;;;;;;;;;17.90;34.30;19.50;97436.00;;;;5521338;25;2076;-38
2024/04/16 07:00:29;;;;;;;;;;;18.00;34.20;19.60;97432.00;;;;5522704;25;2335;-38
2024/04/16 07:03:10;;;;;;;;;;;18.00;34.20;19.60;97423.00;;;;5519947;26;2396;-38
2024/04/16 07:05:45;;;;;;;;;;;18.00;35.00;19.60;97424.00;;;;5521303;25;2169;-38
2024/04/16 07:08:27;;;;;;;;;;;18.00;35.50;19.60;97426.00;;;;5519474;26;2358;-38
2024/04/16 07:11:17;;;;;;;;;;;18.00;35.00;19.60;97424.00;;;;5521834;26;1948;-38
2024/04/16 07:14:24;;;;;;;;;;;18.10;34.60;19.70;97417.00;;;;5520728;26;2439;-38
2024/04/16 07:17:07;;;;;;;;;;;18.10;34.50;19.70;97412.00;;;;5520800;26;2279;-38
2024/04/16 07:19:51;;;;;;;;;;;18.20;34.30;19.70;97404.00;;;;5521328;25;3130;-40
2024/04/16 07:22:46;;;;;;;;;;;18.20;34.10;19.70;97404.00;;;;5515743;26;2293;-38
2024/04/16 07:25:25;;;;;;;;;;;18.20;34.10;19.70;97404.00;;;;5520635;26;1736;-38
2024/04/16 07:28:06;;;;;;;;;;;18.30;34.00;19.80;97391.00;;;;5520704;26;1996;-38
2024/04/16 07:30:45;;;;;;;;;;;18.30;33.80;19.90;97388.00;;;;5521280;26;2249;-38
2024/04/16 07:36:24;;;;;;;;;;;18.30;35.00;20.00;97386.00;;;;5501038;26;1965;-38
2024/04/16 07:39:06;;;;;;;;;;;18.20;34.60;19.90;97387.00;;;;5517700;26;2295;-37
2024/04/16 07:42:00;;;;;;;;;;;18.20;34.30;19.90;97394.00;;;;5521238;26;1762;-37
2024/04/16 07:44:57;;;;;;;;;;;18.30;34.40;19.90;97396.00;;;;5519129;26;2092;-38
2024/04/16 07:47:33;;;;;;;;;;;18.20;34.10;19.90;97396.00;;;;5517653;26;2183;-37
2024/04/16 07:50:36;;;;;;;;;;;18.20;34.10;19.80;97387.00;;;;5521014;26;2156;-38
2024/04/16 07:53:12;;;;;;;;;;;18.20;34.00;19.90;97402.00;;;;5522152;26;2187;-38
2024/04/16 07:55:59;;;;;;;;;;;18.20;33.90;19.80;97397.00;;;;5520995;26;1966;-38
2024/04/16 07:58:39;;;;;;;;;;;18.20;33.80;19.80;97389.00;;;;5520594;25;2327;-38
2024/04/16 08:01:21;;;;;;;;;;;18.20;34.70;19.80;97399.00;;;;5517934;26;2230;-38
2024/04/16 08:04:00;;;;;;;;;;;18.10;34.90;19.70;97402.00;;;;5512992;26;2330;-38
2024/04/16 08:06:31;;;;;;;;;;;18.00;35.00;19.70;97405.00;;;;5520450;25;2317;-38
2024/04/16 08:09:25;;;;;;;;;;;18.00;34.70;19.70;97410.00;;;;5517065;25;1960;-38
2024/04/16 08:12:01;;;;;;;;;;;18.00;34.60;19.70;97383.00;;;;5517796;26;2090;-38
2024/04/16 08:14:43;;;;;;;;;;;18.10;34.50;19.70;97396.00;;;;5521695;25;2345;-37
2024/04/16 08:17:25;;;;;;;;;;;18.00;34.20;19.70;97376.00;;;;5518618;26;2287;-38
2024/04/16 08:20:02;;;;;;;;;;;18.00;34.20;19.70;97376.00;;;;5515399;26;2267;-38
2024/04/16 08:22:42;;;;;;;;;;;18.10;34.10;19.70;97367.00;;;;5514230;25;2340;-37
2024/04/16 08:25:28;;;;;;;;;;;18.10;34.00;19.70;97365.00;;;;5518201;26;2244;-38
2024/04/16 08:28:12;;;;;;;;;;;18.10;34.50;19.70;97358.00;;;;5517276;26;2290;-39
2024/04/16 08:30:57;;;;;;;;;;;18.10;34.90;19.70;97369.00;;;;5517973;25;2203;-38
2024/04/16 08:33:33;;;;;;;;;;;18.00;35.10;19.70;97374.00;;;;5511094;26;2168;-38
2024/04/16 08:36:17;;;;;;;;;;;18.00;35.50;19.70;97380.00;;;;5516170;25;2166;-37
2024/04/16 08:39:00;;;;;;;;;;;18.00;35.80;19.70;97380.00;;;;5512373;26;2211;-37
2024/04/16 08:41:42;;;;;;;;;;;17.90;36.20;19.70;97363.00;;;;5517057;26;1983;-38
2024/04/16 08:44:23;;;;;;;;;;;17.90;35.60;19.60;97378.00;;;;5514796;26;1477;-38
2024/04/16 08:47:17;;;;;;;;;;;18.00;35.30;19.60;97354.00;;;;5519609;26;2216;-38
2024/04/16 08:49:52;;;;;;;;;;;18.00;35.00;19.60;97365.00;;;;5512313;26;2214;-38
2024/04/16 08:52:33;;;;;;;;;;;18.00;34.80;19.70;97360.00;;;;5517709;26;2309;-38
2024/04/16 08:55:12;;;;;;;;;;;18.00;34.60;19.70;97372.00;;;;5519618;26;2180;-39
2024/04/16 08:58:00;;;;;;;;;;;18.10;34.60;19.70;97364.00;;;;5520223;26;1966;-38
2024/04/16 09:00:44;;;;;;;;;;;18.10;34.50;19.70;97362.00;;;;5516902;26;2436;-38
2024/04/16 09:03:22;;;;;;;;;;;18.10;34.50;19.70;97369.00;;;;5518125;26;2085;-38
2024/04/16 09:06:01;;;;;;;;;;;18.00;35.10;19.70;97369.00;;;;5516740;25;2225;-37
2024/04/16 09:08:43;;;;;;;;;;;18.00;35.40;19.70;97359.00;;;;5517661;26;2165;-38
2024/04/16 09:11:48;;;;;;;;;;;18.00;35.40;19.70;97369.00;;;;5517177;26;2229;-38
2024/04/16 09:14:31;;;;;;;;;;;18.00;35.00;19.70;97377.00;;;;5510311;26;1606;-37
2024/04/16 09:17:25;;;;;;;;;;;18.00;34.90;19.70;97376.00;;;;5514629;26;2100;-38
2024/04/16 09:20:09;;;;;;;;;;;18.00;34.60;19.70;97395.00;;;;5518700;26;1949;-38
2024/04/16 09:22:42;;;;;;;;;;;18.00;34.50;19.70;97391.00;;;;5519393;25;2338;-38
2024/04/16 09:25:20;;;;;;;;;;;18.00;34.40;19.70;97375.00;;;;5519058;26;2342;-38
2024/04/16 09:31:11;;;;;;;;;;;18.00;34.20;19.70;97367.00;;;;5512620;26;2927;-38
2024/04/16 09:34:31;;;;;;;;;;;18.00;34.90;19.70;97366.00;;;;5513708;26;3240;-38
2024/04/16 09:38:03;;;;;;;;;;;18.00;35.30;19.70;97368.00;;;;5514043;26;1953;-38
2024/04/16 09:41:11;;;;;;;;;;;18.00;35.10;19.70;97351.00;;;;5516467;26;2353;-37
2024/04/16 09:44:14;;;;;;;;;;;18.00;34.80;19.70;97359.00;;;;5512739;26;2655;-38
2024/04/16 09:47:11;;;;;;;;;;;18.00;34.60;19.70;97350.00;;;;5510569;26;1679;-36
2024/04/16 09:50:17;;;;;;;;;;;18.10;34.50;19.70;97341.00;;;;5513197;26;1869;-38
2024/04/16 09:53:21;;;;;;;;;;;18.10;34.30;19.70;97347.00;;;;5518294;26;3262;-38
2024/04/16 09:56:09;;;;;;;;;;;18.10;34.20;19.70;97336.00;;;;5515293;26;2161;-37
2024/04/16 09:58:44;;;;;;;;;;;18.10;34.20;19.80;97336.00;;;;5516601;26;1840;-38
2024/04/16 10:01:29;;;;;;;;;;;18.10;34.70;19.80;97326.00;;;;5516987;26;1587;-37
2024/04/16 10:04:15;;;;;;;;;;;18.00;34.90;19.80;97323.00;;;;5515373;26;2450;-37
2024/04/16 10:07:03;;;;;;;;;;;18.00;35.00;19.80;97328.00;;;;5517064;26;2335;-37
2024/04/16 10:09:55;;;;;;;;;;;18.10;34.80;19.80;97324.00;;;;5518226;26;2243;-38
2024/04/16 10:12:47;;;;;;;;;;;18.10;34.60;19.70;97320.00;;;;5515777;26;2288;-38
2024/04/16 10:15:39;;;;;;;;;;;18.10;34.50;19.80;97346.00;;;;5522221;26;2237;-38
2024/04/16 10:18:33;;;;;;;;;;;18.10;34.30;19.80;97324.00;;;;5518755;26;2108;-37
2024/04/16 10:21:17;;;;;;;;;;;18.10;34.20;19.80;97322.00;;;;5518428;26;2350;-38
2024/04/16 10:24:14;;;;;;;;;;;18.10;34.00;19.80;97326.00;;;;5520468;25;2168;-38
2024/04/16 10:27:05;;;;;;;;;;;18.20;34.20;19.80;97315.00;;;;5515133;26;3330;-37
2024/04/16 10:30:12;;;;;;;;;;;18.10;34.70;19.80;97306.00;;;;5521627;26;2291;-37
2024/04/16 10:32:48;;;;;;;;;;;18.10;34.90;19.80;97291.00;;;;5519292;26;2211;-37
2024/04/16 10:35:35;;;;;;;;;;;18.00;35.10;19.70;97296.00;;;;5516085;26;1780;-37
2024/04/16 10:38:15;;;;;;;;;;;18.00;35.50;19.70;97286.00;;;;5519877;26;2369;-38
2024/04/16 10:41:14;;;;;;;;;;;17.90;35.80;19.70;97304.00;;;;5462891;26;2757;-38
2024/04/16 10:44:04;;;;;;;;;;;17.90;35.70;19.70;97288.00;;;;5519625;26;1511;-37
2024/04/16 10:46:47;;;;;;;;;;;18.00;35.30;19.70;97302.00;;;;5521155;26;1801;-37
2024/04/16 10:49:26;;;;;;;;;;;18.00;35.20;19.70;97288.00;;;;5523241;26;2218;-38
2024/04/16 10:52:02;;;;;;;;;;;18.00;35.00;19.70;97275.00;;;;5519346;25;2000;-38
2024/04/16 10:55:00;;;;;;;;;;;18.00;34.80;19.70;97257.00;;;;5520589;25;1649;-37
2024/04/16 10:58:03;;;;;;;;;;;18.00;34.60;19.70;97264.00;;;;5520750;26;2270;-38
2024/04/16 11:00:40;;;;;;;;;;;18.00;34.50;19.70;97247.00;;;;5519178;26;2035;-38
2024/04/16 11:03:31;;;;;;;;;;;18.00;34.70;19.70;97262.00;;;;5514623;26;2190;-38
2024/04/16 11:06:15;;;;;;;;;;;18.00;35.10;19.70;97248.00;;;;5521344;26;2299;-38
2024/04/16 11:08:59;;;;;;;;;;;18.00;35.30;19.70;97257.00;;;;5521377;26;2177;-38
2024/04/16 11:11:41;;;;;;;;;;;18.00;35.30;19.70;97239.00;;;;5517995;26;1577;-37
2024/04/16 11:14:24;;;;;;;;;;;18.00;35.00;19.70;97254.00;;;;5506607;25;2324;-38
2024/04/16 11:19:45;;;;;;;;;;;18.00;34.70;19.70;97255.00;;;;5505147;26;1865;-37
2024/04/16 11:22:38;;;;;;;;;;;18.00;34.50;19.70;97270.00;;;;5509211;26;2191;-37
2024/04/16 11:25:42;;;;;;;;;;;18.00;34.40;19.70;97252.00;;;;5511923;26;2065;-37
2024/04/16 11:28:32;;;;;;;;;;;18.00;34.30;19.70;97269.00;;;;5466522;26;2359;-37
2024/04/16 11:31:20;;;;;;;;;;;18.00;34.30;19.60;97266.00;;;;5471342;26;2319;-36
2024/04/16 11:34:02;;;;;;;;;;;18.00;35.00;19.60;97260.00;;;;5476243;26;2329;-37
2024/04/16 11:36:36;;;;;;;;;;;17.90;35.20;19.60;97266.00;;;;5473600;26;2209;-38
2024/04/16 11:39:24;;;;;;;;;;;17.90;35.40;19.60;97259.00;;;;5468381;26;1983;-37
2024/04/16 11:42:03;;;;;;;;;;;17.90;35.00;19.60;97254.00;;;;5463786;26;2356;-38
2024/04/16 11:44:50;;;;;;;;;;;17.90;34.80;19.60;97239.00;;;;5479638;26;2230;-37
2024/04/16 11:47:50;;;;;;;;;;;18.00;34.70;19.60;97239.00;;;;5466734;26;1974;-37
2024/04/16 11:50:28;;;;;;;;;;;17.90;34.40;19.60;97241.00;;;;5470695;26;2294;-36
2024/04/16 11:53:06;;;;;;;;;;;18.00;34.40;19.60;97231.00;;;;5465128;26;2323;-37
2024/04/16 11:55:49;;;;;;;;;;;18.00;34.30;19.60;97228.00;;;;5471834;26;1982;-38
2024/04/16 11:58:34;;;;;;;;;;;18.00;34.20;19.60;97220.00;;;;5470673;26;1954;-37
2024/04/16 12:01:25;;;;;;;;;;;18.00;34.40;19.60;97221.00;;;;5471096;26;2385;-37
2024/04/16 12:04:19;;;;;;;;;;;17.90;34.60;19.60;97223.00;;;;5479038;26;2224;-37
2024/04/16 12:07:06;;;;;;;;;;;17.90;34.90;19.60;97221.00;;;;5474795;26;2168;-37
2024/04/16 12:09:53;;;;;;;;;;;17.90;34.60;19.50;97207.00;;;;5479154;26;2067;-37
2024/04/16 12:12:51;;;;;;;;;;;;;;;;;;;;;
2024/04/16 12:15:39;;;;;;;;;;;17.90;34.40;19.60;97209.00;;;;5466573;26;2473;-37
2024/04/16 12:18:30;;;;;;;;;;;17.90;34.30;19.60;97193.00;;;;5476027;26;2244;-37
2024/04/16 12:21:25;;;;;;;;;;;17.90;34.10;19.60;97189.00;;;;5480548;26;2557;-37
2024/04/16 12:24:13;;;;;;;;;;;17.90;34.00;19.50;97183.00;;;;5478096;26;3405;-36
2024/04/16 12:27:07;;;;;;;;;;;17.90;34.00;19.50;97182.00;;;;5468539;26;2008;-37
2024/04/16 12:30:04;;;;;;;;;;;17.80;34.70;19.40;97179.00;;;;5468928;26;1981;-37
2024/04/16 12:32:45;;;;;;;;;;;17.80;35.10;19.40;97174.00;;;;5472477;26;2330;-37
2024/04/16 12:35:39;;;;;;;;;;;17.70;35.50;19.40;97179.00;;;;5467491;26;3109;-37
2024/04/16 12:38:29;;;;;;;;;;;17.70;35.90;19.30;97168.00;;;;5476134;26;2282;-37
2024/04/16 12:41:19;;;;;;;;;;;17.60;36.00;19.40;97173.00;;;;5476409;26;1927;-37
2024/04/16 12:44:03;;;;;;;;;;;17.70;35.80;19.30;97153.00;;;;5466734;26;2006;-36
2024/04/16 12:46:47;;;;;;;;;;;17.70;35.40;19.40;97154.00;;;;5469673;26;2323;-37
2024/04/16 12:49:27;;;;;;;;;;;17.70;35.10;19.40;97155.00;;;;5470921;26;2178;-37
2024/04/16 12:52:08;;;;;;;;;;;17.80;35.00;19.40;97145.00;;;;5465775;26;2183;-37
2024/04/16 12:55:09;;;;;;;;;;;17.70;34.70;19.40;97133.00;;;;5470613;26;2177;-37
2024/04/16 12:58:07;;;;;;;;;;;17.80;34.70;19.40;97134.00;;;;5470485;26;2200;-37
2024/04/16 13:00:52;;;;;;;;;;;17.80;34.50;19.40;97137.00;;;;5473883;26;2133;-37
2024/04/16 13:03:52;;;;;;;;;;;;;;;;;;;;;
2024/04/16 13:06:58;;;;;;;;;;;17.80;34.80;19.40;97119.00;;;;5469695;26;2364;-37
2024/04/16 13:09:45;;;;;;;;;;;17.70;35.30;19.40;97120.00;;;;5473844;26;2302;-37
2024/04/16 13:12:35;;;;;;;;;;;17.70;34.90;19.40;97107.00;;;;5470372;26;2348;-37
2024/04/16 13:15:15;;;;;;;;;;;17.70;34.70;19.40;97108.00;;;;5480009;26;2215;-37
2024/04/16 13:18:29;;;;;;;;;;;17.80;34.70;19.40;97112.00;;;;5461182;26;2223;-37
2024/04/16 13:21:10;;;;;;;;;;;17.80;34.50;19.40;97097.00;;;;5467031;26;2217;-36
2024/04/16 13:24:11;;;;;;;;;;;17.80;34.40;19.40;97093.00;;;;5473314;26;2307;-37
2024/04/16 13:26:57;;;;;;;;;;;17.80;34.20;19.50;97105.00;;;;5470940;26;2354;-37
2024/04/16 13:29:48;;;;;;;;;;;17.80;34.10;19.40;97093.00;;;;5467143;26;2217;-37
2024/04/16 13:32:28;;;;;;;;;;;17.80;34.70;19.40;97092.00;;;;5470577;26;2287;-37